Time;durP1;ratioP1;P1;durP2;ratioP2;P2;SDS_P1;SDS_P2;PMS_P1;PMS_P2;Temp;Humidity;BMP_temperature;BMP_pressure;BME280_temperature;BME280_humidity;BME280_pressure;Samples;Min_cycle;Max_cycle;Signal;HPM_P1;HPM_P2
2021/07/17 00:00:24;;;;;;;;;;;18.10;99.90;;;17.07;100.00;95984.97;10326169;28;2288;-82
2021/07/17 00:05:27;;;;;;;;;;;18.10;99.90;;;16.98;100.00;95984.09;10326012;28;2298;-80
2021/07/17 00:10:30;;;;;;;;;;;18.00;99.90;;;17.02;100.00;95980.44;10328114;28;2293;-81
2021/07/17 00:15:32;;;;;;;;;;;18.00;99.90;;;17.02;100.00;95971.50;10334175;28;2442;-81
2021/07/17 00:20:35;;;;;;;;;;;18.00;99.90;;;16.98;100.00;95970.50;10338318;28;2238;-81
2021/07/17 00:25:39;;;;;;;;;;;18.00;99.90;;;16.95;100.00;95963.78;10324684;28;2277;-80
2021/07/17 00:30:41;;;;;;;;;;;17.90;99.90;;;16.95;100.00;95971.16;10343817;28;2432;-80
2021/07/17 00:35:44;;;;;;;;;;;17.90;99.90;;;16.95;100.00;95971.16;10345869;28;2128;-79
2021/07/17 00:40:47;;;;;;;;;;;17.90;99.90;;;17.00;100.00;95973.75;10326326;28;2246;-81
2021/07/17 00:45:49;;;;;;;;;;;17.90;99.90;;;17.04;100.00;95972.00;10344324;28;2300;-80
2021/07/17 00:50:52;;;;;;;;;;;18.00;99.90;;;17.07;100.00;95959.72;10315339;28;1950;-80
2021/07/17 00:55:55;;;;;;;;;;;18.00;99.90;;;17.07;99.72;95967.88;10353869;28;2939;-81
2021/07/17 01:00:57;;;;;;;;;;;18.00;99.90;;;17.06;99.51;95966.28;10335106;28;2397;-82
2021/07/17 01:06:00;;;;;;;;;;;18.00;99.90;;;17.05;99.56;95972.78;10339587;28;2407;-82
2021/07/17 01:11:03;;;;;;;;;;;17.90;99.90;;;17.04;100.00;95955.69;10342107;28;2370;-81
2021/07/17 01:16:05;;;;;;;;;;;18.00;99.90;;;17.02;100.00;95966.88;10339896;28;2402;-82
2021/07/17 01:21:08;;;;;;;;;;;17.90;99.90;;;17.04;100.00;95955.69;10353104;28;2540;-80
2021/07/17 01:26:11;;;;;;;;;;;17.90;99.90;;;16.91;100.00;95948.44;10340958;28;2618;-82
2021/07/17 01:31:14;;;;;;;;;;;17.90;99.90;;;16.95;100.00;95960.28;10350007;28;2423;-82
2021/07/17 01:36:17;;;;;;;;;;;17.80;99.90;;;16.87;100.00;95963.75;10337638;28;2553;-82
2021/07/17 01:41:20;;;;;;;;;;;17.80;99.90;;;16.90;100.00;95968.53;10332614;28;2898;-83
2021/07/17 01:46:23;;;;;;;;;;;17.80;99.90;;;17.07;100.00;95965.16;10340384;28;2489;-81
2021/07/17 01:51:25;;;;;;;;;;;17.80;99.90;;;17.08;100.00;95986.56;10334053;28;2473;-80
2021/07/17 01:56:28;;;;;;;;;;;17.90;99.90;;;17.07;100.00;95982.25;10335455;28;2985;-80
2021/07/17 02:01:31;;;;;;;;;;;17.90;99.90;;;17.13;100.00;95966.63;10339411;28;2274;-81
2021/07/17 02:06:34;;;;;;;;;;;17.90;99.90;;;17.06;100.00;95967.06;10334819;28;2406;-81
2021/07/17 02:11:36;;;;;;;;;;;18.00;99.90;;;17.07;100.00;95963.25;10340272;28;2308;-81
2021/07/17 02:16:39;;;;;;;;;;;18.00;99.90;;;17.08;100.00;95953.97;10331598;28;2270;-81
2021/07/17 02:21:42;;;;;;;;;;;17.90;99.90;;;17.00;100.00;95950.09;10333245;28;2213;-81
2021/07/17 02:26:44;;;;;;;;;;;17.90;99.90;;;16.91;100.00;95948.44;10336015;28;2387;-81
2021/07/17 02:31:47;;;;;;;;;;;17.80;99.90;;;16.88;100.00;95939.00;10328527;28;2242;-80
2021/07/17 02:36:50;;;;;;;;;;;17.80;99.90;;;16.91;100.00;95937.56;10329852;28;2700;-80
2021/07/17 02:41:53;;;;;;;;;;;17.80;99.90;;;16.78;100.00;95943.88;10331540;28;2220;-81
2021/07/17 02:46:56;;;;;;;;;;;17.80;99.90;;;16.67;100.00;95943.28;10335735;28;2337;-80
2021/07/17 02:51:59;;;;;;;;;;;17.60;99.90;;;16.58;100.00;95948.63;10344518;28;2242;-81
2021/07/17 02:57:03;;;;;;;;;;;17.60;99.90;;;16.42;100.00;95958.25;10328080;28;3213;-81
2021/07/17 03:02:05;;;;;;;;;;;17.50;99.90;;;16.32;100.00;95959.28;10349200;28;2312;-81
2021/07/17 03:07:09;;;;;;;;;;;17.40;99.90;;;16.19;100.00;95960.91;10325659;28;2372;-82
2021/07/17 03:12:12;;;;;;;;;;;17.30;99.90;;;16.14;100.00;95958.31;10320719;28;2596;-81
2021/07/17 03:17:15;;;;;;;;;;;17.20;99.90;;;16.03;100.00;95956.09;10317958;28;2354;-82
2021/07/17 03:22:18;;;;;;;;;;;17.10;99.90;;;15.99;100.00;95947.00;10351160;28;2419;-83
2021/07/17 03:27:21;;;;;;;;;;;17.00;99.90;;;15.98;100.00;95951.63;10325674;28;2178;-82
2021/07/17 03:32:26;;;;;;;;;;;17.00;99.90;;;15.90;100.00;95968.56;10327907;28;2385;-81
2021/07/17 03:37:29;;;;;;;;;;;17.00;99.90;;;16.05;100.00;95975.59;10327455;28;2281;-82
2021/07/17 03:42:32;;;;;;;;;;;16.90;99.90;;;16.32;100.00;95974.75;10317542;28;2429;-80
2021/07/17 03:47:34;;;;;;;;;;;17.10;99.90;;;16.45;100.00;95974.72;10323316;28;2320;-82
2021/07/17 03:52:37;;;;;;;;;;;17.20;99.90;;;16.58;100.00;95975.78;10329356;28;2230;-82
2021/07/17 03:57:39;;;;;;;;;;;17.30;99.90;;;16.69;100.00;95981.78;10333069;28;2380;-83
2021/07/17 04:02:43;;;;;;;;;;;17.40;99.90;;;16.63;100.00;95983.81;10331989;28;2356;-84
2021/07/17 04:07:46;;;;;;;;;;;17.40;99.90;;;16.73;100.00;95986.31;10330470;28;2235;-81
2021/07/17 04:12:52;;;;;;;;;;;17.50;99.90;;;16.82;100.00;96005.38;10332337;28;2543;-81
2021/07/17 04:18:15;;;;;;;;;;;17.60;99.90;;;16.86;100.00;96011.00;10331817;28;2367;-78
2021/07/17 04:23:37;;;;;;;;;;;17.60;99.90;;;16.92;100.00;96009.75;10343706;28;2173;-80
2021/07/17 04:28:40;;;;;;;;;;;17.70;99.90;;;16.91;100.00;96008.16;10337485;28;2340;-81
2021/07/17 04:33:43;;;;;;;;;;;17.70;99.90;;;16.84;100.00;96005.06;10327283;28;2300;-80
2021/07/17 04:38:45;;;;;;;;;;;17.70;99.90;;;16.82;100.00;96016.25;10318672;28;2479;-82
2021/07/17 04:43:48;;;;;;;;;;;17.70;99.90;;;16.73;100.00;96009.94;10334483;28;2336;-80
2021/07/17 04:48:51;;;;;;;;;;;17.60;99.90;;;16.81;100.00;95997.56;10333285;28;2749;-81
2021/07/17 04:53:54;;;;;;;;;;;17.60;99.90;;;17.01;100.00;95984.28;10331738;28;3089;-81
2021/07/17 04:58:56;;;;;;;;;;;17.80;99.90;;;17.22;100.00;95991.91;10322898;28;2415;-81
2021/07/17 05:03:59;;;;;;;;;;;17.90;99.90;;;17.36;100.00;95980.97;10326815;28;2431;-79
2021/07/17 05:09:02;;;;;;;;;;;18.00;99.90;;;17.42;100.00;95979.72;10331800;28;2265;-82
2021/07/17 05:14:04;;;;;;;;;;;18.20;99.90;;;17.60;100.00;95975.97;10329631;28;2672;-80
2021/07/17 05:19:07;;;;;;;;;;;18.30;99.90;;;17.46;100.00;95986.16;10328397;28;2403;-82
2021/07/17 05:24:10;;;;;;;;;;;18.30;99.90;;;17.41;100.00;95989.00;10318858;28;2448;-79
2021/07/17 05:29:13;;;;;;;;;;;18.20;99.90;;;17.27;100.00;95981.72;10324949;28;2669;-81
2021/07/17 05:34:15;;;;;;;;;;;18.20;99.90;;;17.47;100.00;95993.19;10344138;28;2669;-79
2021/07/17 05:39:18;;;;;;;;;;;18.20;99.90;;;17.45;100.00;95995.41;10335586;28;2290;-79
2021/07/17 05:44:21;;;;;;;;;;;18.20;99.90;;;17.56;100.00;96003.00;10339085;28;2345;-81
2021/07/17 05:49:24;;;;;;;;;;;18.30;99.90;;;17.52;100.00;95996.56;10342343;28;2312;-81
2021/07/17 05:54:26;;;;;;;;;;;18.40;99.90;;;17.74;100.00;95998.44;10332125;28;3026;-79
2021/07/17 05:59:29;;;;;;;;;;;18.40;99.90;;;17.83;100.00;95996.59;10328604;28;2348;-80
2021/07/17 06:04:32;;;;;;;;;;;18.60;99.90;;;17.82;100.00;95989.53;10340732;28;2282;-81
2021/07/17 06:09:35;;;;;;;;;;;18.60;99.90;;;17.79;100.00;96002.94;10334724;28;2476;-80
2021/07/17 06:14:38;;;;;;;;;;;18.70;99.90;;;17.72;100.00;96006.13;10337744;28;2281;-81
2021/07/17 06:19:41;;;;;;;;;;;18.60;99.90;;;17.70;100.00;96002.91;10332344;28;2305;-82
2021/07/17 06:24:43;;;;;;;;;;;18.50;99.90;;;17.47;100.00;96021.16;10342893;28;2326;-80
2021/07/17 06:29:46;;;;;;;;;;;18.40;99.90;;;17.54;100.00;96012.56;10342452;28;2329;-80
2021/07/17 06:34:49;;;;;;;;;;;18.40;99.90;;;17.51;100.00;96018.63;10332888;28;2389;-82
2021/07/17 06:39:51;;;;;;;;;;;18.50;99.90;;;17.73;100.00;96024.03;10349496;28;2664;-84
2021/07/17 06:44:54;;;;;;;;;;;18.50;99.90;;;17.67;100.00;96030.69;10363519;28;2368;-81
2021/07/17 06:49:58;;;;;;;;;;;18.50;99.90;;;17.50;100.00;96025.19;10370294;28;2290;-82
2021/07/17 06:55:02;;;;;;;;;;;18.50;99.90;;;17.69;100.00;96031.19;10359327;28;1901;-83
2021/07/17 07:00:05;;;;;;;;;;;18.40;99.90;;;17.59;100.00;96041.53;10362650;28;2320;-81
2021/07/17 07:05:07;;;;;;;;;;;18.50;99.90;;;17.70;100.00;96034.72;10355382;28;2626;-80
2021/07/17 07:10:10;;;;;;;;;;;18.50;99.90;;;17.68;100.00;96043.16;10350839;28;2594;-79
2021/07/17 07:15:12;;;;;;;;;;;18.50;99.90;;;17.58;100.00;96048.09;10349588;28;2444;-83
2021/07/17 07:20:15;;;;;;;;;;;18.50;99.90;;;17.56;100.00;96051.13;10353602;28;2364;-81
2021/07/17 07:25:18;;;;;;;;;;;18.50;99.90;;;17.65;100.00;96051.97;10349364;28;2350;-80
2021/07/17 07:30:21;;;;;;;;;;;18.50;99.90;;;17.71;100.00;96044.47;10341770;28;2381;-80
2021/07/17 07:35:23;;;;;;;;;;;18.50;99.90;;;17.87;100.00;96044.88;10343481;28;2380;-81
2021/07/17 07:40:29;;;;;;;;;;;18.60;99.90;;;17.94;100.00;96050.66;10358997;28;2897;-81
2021/07/17 07:45:31;;;;;;;;;;;18.70;99.90;;;17.88;100.00;96060.09;10370864;28;2256;-82
2021/07/17 07:50:34;;;;;;;;;;;18.70;99.90;;;17.94;100.00;96050.66;10365475;28;2417;-82
2021/07/17 07:55:37;;;;;;;;;;;18.70;99.90;;;17.99;99.06;96050.53;10363026;28;1987;-80
2021/07/17 08:00:40;;;;;;;;;;;18.80;99.90;;;18.27;97.42;96051.13;10358971;28;2497;-78
2021/07/17 08:05:47;;;;;;;;;;;19.00;99.90;;;18.62;95.49;96043.84;10368182;28;2325;-79
2021/07/17 08:10:49;;;;;;;;;;;19.20;99.90;;;18.52;95.98;96049.59;10362629;28;2356;-82
2021/07/17 08:15:53;;;;;;;;;;;19.30;99.90;;;18.62;94.67;96055.53;10364540;28;1766;-78
2021/07/17 08:20:55;;;;;;;;;;;19.40;99.90;;;18.93;93.13;96054.63;10368316;28;1963;-82
2021/07/17 08:25:59;;;;;;;;;;;19.60;99.90;;;18.69;94.54;96065.97;10354971;28;2198;-79
2021/07/17 08:31:01;;;;;;;;;;;19.60;99.90;;;18.63;95.16;96067.22;10338894;28;2372;-79
2021/07/17 08:36:04;;;;;;;;;;;19.50;99.90;;;18.45;96.61;96065.56;10351917;28;1928;-81
2021/07/17 08:41:07;;;;;;;;;;;19.40;99.90;;;18.35;96.36;96059.31;10330647;28;2306;-80
2021/07/17 08:46:09;;;;;;;;;;;19.30;99.90;;;18.37;96.47;96048.91;10325497;28;2301;-80
2021/07/17 08:51:12;;;;;;;;;;;19.20;99.90;;;18.76;94.51;96039.06;10343293;28;2340;-79
2021/07/17 08:56:15;;;;;;;;;;;19.40;99.90;;;19.00;92.52;96041.31;10332924;28;3049;-81
2021/07/17 09:01:18;;;;;;;;;;;19.60;99.90;;;19.77;88.27;96045.09;10327702;28;2363;-82
2021/07/17 09:06:21;;;;;;;;;;;20.10;99.90;;;19.93;85.67;96048.91;10327400;28;2587;-79
2021/07/17 09:11:23;;;;;;;;;;;20.50;99.90;;;20.91;81.12;96038.72;10329583;28;2232;-79
2021/07/17 09:16:26;;;;;;;;;;;21.00;99.90;;;21.37;78.09;96025.97;10335935;28;2406;-81
2021/07/17 09:21:29;;;;;;;;;;;21.50;99.90;;;20.94;79.95;96029.88;10341391;28;2261;-80
2021/07/17 09:26:31;;;;;;;;;;;21.70;99.90;;;20.15;82.64;96039.63;10341244;28;2205;-80
2021/07/17 09:31:34;;;;;;;;;;;21.30;99.90;;;20.57;82.49;96028.84;10332982;28;2197;-79
2021/07/17 09:36:37;;;;;;;;;;;21.10;99.90;;;21.73;76.25;96017.09;10342017;28;2399;-78
2021/07/17 09:41:40;;;;;;;;;;;21.60;99.90;;;21.64;75.30;96023.81;10333577;28;2272;-81
2021/07/17 09:46:43;;;;;;;;;;;22.10;99.90;;;20.50;80.70;96029.38;10338787;28;2311;-79
2021/07/17 09:51:46;;;;;;;;;;;21.70;99.90;;;20.50;81.36;96023.13;10344422;28;2329;-78
2021/07/17 09:56:48;;;;;;;;;;;21.30;99.90;;;20.46;81.41;96016.72;10334958;28;3057;-80
2021/07/17 10:01:51;;;;;;;;;;;21.30;99.90;;;20.42;81.59;96011.09;10337509;28;2389;-82
2021/07/17 10:06:59;;;;;;;;;;;21.20;99.90;;;20.75;81.39;96013.16;10343892;28;2758;-81
2021/07/17 10:12:02;;;;;;;;;;;21.30;99.90;;;20.41;82.78;96014.94;10354713;28;2354;-80
2021/07/17 10:17:06;;;;;;;;;;;21.40;99.90;;;20.27;85.77;96013.59;10364289;28;2197;-79
2021/07/17 10:22:09;;;;;;;;;;;21.20;99.90;;;19.92;90.02;96011.84;10357236;28;2298;-81
2021/07/17 10:27:11;;;;;;;;;;;21.00;99.90;;;19.40;90.28;96020.16;10360826;28;2626;-81
2021/07/17 10:32:18;;;;;;;;;;;20.50;99.90;;;19.30;91.03;96015.03;10359952;28;2296;-79
2021/07/17 10:37:21;;;;;;;;;;;20.30;99.90;;;19.19;93.55;96011.03;10357924;28;2329;-80
2021/07/17 10:42:24;;;;;;;;;;;20.10;99.90;;;19.33;94.40;96003.47;10357590;28;2233;-79
2021/07/17 10:47:27;;;;;;;;;;;20.10;99.90;;;19.64;91.26;95997.00;10368766;28;2792;-81
2021/07/17 10:52:30;;;;;;;;;;;20.30;99.90;;;19.50;92.78;95999.09;10371178;28;2281;-80
2021/07/17 10:57:32;;;;;;;;;;;20.30;99.90;;;19.28;97.32;96003.66;10379367;28;2411;-79
2021/07/17 11:02:35;;;;;;;;;;;20.30;99.90;;;19.01;100.00;96004.00;10374229;28;2392;-79
2021/07/17 11:07:38;;;;;;;;;;;20.00;99.90;;;18.59;100.00;95992.75;10373650;28;2598;-81
2021/07/17 11:12:41;;;;;;;;;;;19.70;99.90;;;18.40;100.00;96003.94;10367472;28;1934;-79
2021/07/17 11:17:44;;;;;;;;;;;19.40;99.90;;;18.34;100.00;96006.00;10334219;28;2756;-80
2021/07/17 11:22:46;;;;;;;;;;;19.30;99.90;;;18.26;100.00;96004.06;10346397;28;2373;-79
2021/07/17 11:27:49;;;;;;;;;;;19.20;99.90;;;18.56;100.00;96004.28;10337673;28;2289;-80
2021/07/17 11:32:52;;;;;;;;;;;19.20;99.90;;;19.39;100.00;96002.16;10340392;28;2383;-80
2021/07/17 11:37:55;;;;;;;;;;;19.60;99.90;;;20.58;93.50;95991.41;10330021;28;2649;-80
2021/07/17 11:42:57;;;;;;;;;;;20.50;99.90;;;19.99;95.28;95992.22;10330627;28;2510;-79
2021/07/17 11:48:00;;;;;;;;;;;20.90;99.90;;;19.36;96.40;95983.75;10349697;28;2389;-80
2021/07/17 11:53:03;;;;;;;;;;;20.50;99.90;;;19.22;96.81;95985.06;10330822;28;2340;-79
2021/07/17 11:58:06;;;;;;;;;;;20.30;99.90;;;19.36;95.12;95988.41;10327454;28;3133;-79
2021/07/17 12:03:08;;;;;;;;;;;20.20;99.90;;;19.88;92.13;95975.41;10330548;28;2425;-80
2021/07/17 12:08:11;;;;;;;;;;;20.40;99.90;;;20.17;90.05;95960.19;10345368;28;2736;-79
2021/07/17 12:13:14;;;;;;;;;;;20.70;99.90;;;20.42;88.51;95966.59;10338167;28;2436;-79
2021/07/17 12:18:18;;;;;;;;;;;21.00;99.90;;;20.13;90.10;95954.56;10325306;28;2514;-78
2021/07/17 12:23:21;;;;;;;;;;;21.00;99.90;;;20.36;87.53;95963.28;10328480;28;2359;-80
2021/07/17 12:28:24;;;;;;;;;;;21.10;99.90;;;21.31;81.90;95959.78;10325717;28;2555;-81
2021/07/17 12:33:26;;;;;;;;;;;21.50;99.90;;;21.39;78.91;95954.56;10324036;28;2562;-81
2021/07/17 12:38:29;;;;;;;;;;;21.90;99.90;;;21.20;79.83;95957.78;10335983;28;2379;-80
2021/07/17 12:43:33;;;;;;;;;;;21.80;99.90;;;21.03;81.68;95951.34;10341886;28;2696;-81
2021/07/17 12:48:36;;;;;;;;;;;21.70;99.90;;;20.82;81.60;95950.59;10334757;28;2423;-82
2021/07/17 12:53:38;;;;;;;;;;;21.60;99.90;;;21.03;80.00;95943.16;10338976;28;2520;-81
2021/07/17 12:58:41;;;;;;;;;;;21.60;99.90;;;21.29;78.88;95955.78;10338481;28;3037;-79
2021/07/17 13:03:44;;;;;;;;;;;21.80;99.90;;;21.29;79.03;95950.31;10349933;28;2443;-77
2021/07/17 13:08:47;;;;;;;;;;;21.90;99.90;;;21.20;79.39;95947.66;10350948;28;2351;-80
2021/07/17 13:13:49;;;;;;;;;;;21.90;99.90;;;21.08;78.94;95939.41;10342051;28;2646;-82
2021/07/17 13:18:52;;;;;;;;;;;22.00;99.90;;;21.46;78.06;95933.72;10353740;28;2382;-80
2021/07/17 13:23:56;;;;;;;;;;;22.00;99.90;;;21.78;75.28;95939.47;10359463;28;2469;-80
2021/07/17 13:28:58;;;;;;;;;;;22.30;99.90;;;21.86;75.48;95924.88;10346628;28;2309;-81
2021/07/17 13:34:01;;;;;;;;;;;22.40;99.90;;;22.08;72.46;95937.31;10347328;28;2490;-80
2021/07/17 13:39:04;;;;;;;;;;;22.80;99.90;;;22.49;72.28;95930.75;10353691;28;2384;-79
2021/07/17 13:44:07;;;;;;;;;;;23.00;99.90;;;22.37;71.43;95931.56;10363293;28;2689;-77
2021/07/17 13:49:09;;;;;;;;;;;23.10;99.90;;;22.11;73.11;95926.47;10361307;28;2408;-81
2021/07/17 13:54:12;;;;;;;;;;;23.00;99.90;;;21.67;74.62;95933.63;10364722;28;3104;-81
2021/07/17 13:59:15;;;;;;;;;;;22.70;99.90;;;21.58;76.63;95928.28;10334594;28;2408;-77
2021/07/17 14:04:17;;;;;;;;;;;22.40;99.90;;;22.00;75.40;95924.50;10337461;28;2586;-81
2021/07/17 14:09:20;;;;;;;;;;;22.50;99.90;;;22.43;72.86;95917.66;10354168;28;2543;-81
2021/07/17 14:14:23;;;;;;;;;;;22.80;99.90;;;22.28;74.75;95924.66;10348858;28;2377;-81
2021/07/17 14:19:26;;;;;;;;;;;22.90;99.90;;;22.53;72.46;95917.97;10350102;28;2381;-80
2021/07/17 14:24:28;;;;;;;;;;;23.10;99.90;;;22.33;72.79;95911.50;10344903;28;2410;-78
2021/07/17 14:29:31;;;;;;;;;;;23.10;99.90;;;21.74;74.70;95922.13;10347938;28;2371;-81
2021/07/17 14:34:34;;;;;;;;;;;22.80;99.90;;;21.07;78.14;95924.16;10367047;28;2321;-79
2021/07/17 14:39:36;;;;;;;;;;;22.30;99.90;;;20.62;80.74;95929.56;10355072;28;2268;-78
2021/07/17 14:44:39;;;;;;;;;;;21.80;99.90;;;20.40;82.86;95930.63;10351943;28;2336;-78
2021/07/17 14:49:42;;;;;;;;;;;21.50;99.90;;;20.35;83.90;95928.91;10356217;28;2353;-78
2021/07/17 14:54:45;;;;;;;;;;;21.30;99.90;;;20.55;82.96;95927.34;10335038;28;3200;-80
2021/07/17 14:59:47;;;;;;;;;;;21.30;99.90;;;20.47;82.68;95915.34;10350872;28;2435;-79
2021/07/17 15:04:51;;;;;;;;;;;21.30;99.90;;;20.26;84.25;95930.91;10358884;28;2343;-79
2021/07/17 15:09:54;;;;;;;;;;;21.30;99.90;;;20.07;85.34;95927.81;10372697;28;2272;-79
2021/07/17 15:14:57;;;;;;;;;;;21.10;99.90;;;20.07;86.10;95917.69;10355538;28;2285;-80
2021/07/17 15:19:59;;;;;;;;;;;21.00;99.90;;;20.17;85.60;95924.72;10348610;28;2447;-80
2021/07/17 15:25:02;;;;;;;;;;;21.00;99.90;;;20.06;86.69;95921.56;10337366;28;2415;-79
2021/07/17 15:30:05;;;;;;;;;;;21.00;99.90;;;20.21;85.80;95926.44;10332469;28;2407;-81
2021/07/17 15:35:08;;;;;;;;;;;21.00;99.90;;;20.60;85.00;95924.41;10333438;28;2535;-79
2021/07/17 15:40:10;;;;;;;;;;;21.10;99.90;;;19.97;90.62;95928.97;10334685;28;2693;-80
2021/07/17 15:45:13;;;;;;;;;;;21.10;99.90;;;19.59;93.61;95934.47;10327663;28;2436;-81
2021/07/17 15:50:16;;;;;;;;;;;20.70;99.90;;;19.45;95.15;95927.25;10335010;28;2373;-82
2021/07/17 15:55:19;;;;;;;;;;;20.50;99.90;;;19.21;95.40;95927.00;10327872;28;2629;-80
2021/07/17 16:00:21;;;;;;;;;;;20.30;99.90;;;19.08;96.30;95930.72;10330846;28;2389;-82
2021/07/17 16:05:24;;;;;;;;;;;20.20;99.90;;;18.82;100.00;95928.84;10318804;28;2561;-81
2021/07/17 16:10:27;;;;;;;;;;;19.90;99.90;;;18.16;100.00;95935.56;10316064;28;2579;-81
2021/07/17 16:15:30;;;;;;;;;;;19.30;99.90;;;18.06;100.00;95925.75;10336458;28;2222;-80
2021/07/17 16:20:35;;;;;;;;;;;19.00;99.90;;;17.99;100.00;95923.50;10333645;28;2325;-78
2021/07/17 16:25:38;;;;;;;;;;;18.90;99.90;;;18.14;100.00;95921.47;10329965;28;2301;-81
2021/07/17 16:30:40;;;;;;;;;;;18.90;99.90;;;18.25;100.00;95926.25;10327543;28;2293;-80
2021/07/17 16:35:43;;;;;;;;;;;19.00;99.90;;;18.51;100.00;95907.25;10325558;28;2327;-82
2021/07/17 16:40:46;;;;;;;;;;;19.20;99.90;;;18.76;100.00;95900.19;10324974;28;2313;-80
2021/07/17 16:45:48;;;;;;;;;;;19.40;99.90;;;18.98;100.00;95901.13;10316147;28;2312;-79
2021/07/17 16:50:51;;;;;;;;;;;19.60;99.90;;;19.00;100.00;95899.66;10315183;28;2716;-80
2021/07/17 16:55:54;;;;;;;;;;;19.70;99.90;;;19.04;100.00;95903.34;10328883;28;2244;-79
2021/07/17 17:00:57;;;;;;;;;;;19.80;99.90;;;19.00;100.00;95896.16;10321153;28;2510;-80
2021/07/17 17:06:00;;;;;;;;;;;19.80;99.90;;;18.90;100.00;95903.56;10320517;28;2380;-82
2021/07/17 17:11:02;;;;;;;;;;;19.80;99.90;;;18.97;100.00;95902.25;10331838;28;2279;-80
2021/07/17 17:16:05;;;;;;;;;;;19.70;99.90;;;19.19;100.00;95902.03;10345873;28;2336;-80
2021/07/17 17:21:08;;;;;;;;;;;19.90;99.90;;;19.16;100.00;95899.97;10338765;28;2389;-82
2021/07/17 17:26:11;;;;;;;;;;;19.90;99.90;;;19.11;100.00;95898.22;10329169;28;2317;-80
2021/07/17 17:31:13;;;;;;;;;;;19.90;99.90;;;19.53;100.00;95908.47;10321349;28;2253;-82
2021/07/17 17:36:16;;;;;;;;;;;20.10;99.90;;;19.61;100.00;95905.75;10333362;28;2437;-81
2021/07/17 17:41:28;;;;;;;;;;;20.20;99.90;;;19.51;100.00;95906.06;10333638;28;2317;-81
2021/07/17 17:46:30;;;;;;;;;;;20.30;99.90;;;19.57;100.00;95910.22;10335298;28;2320;-81
2021/07/17 17:51:33;;;;;;;;;;;20.20;99.90;;;19.52;100.00;95909.59;10358107;28;2388;-81
2021/07/17 17:56:36;;;;;;;;;;;20.30;99.90;;;19.36;100.00;95910.16;10340293;28;2753;-78
2021/07/17 18:01:39;;;;;;;;;;;20.20;99.90;;;19.49;100.00;95908.34;10348000;28;2451;-80
2021/07/17 18:06:42;;;;;;;;;;;20.20;99.90;;;19.28;100.00;95911.00;10332456;28;2399;-81
2021/07/17 18:11:44;;;;;;;;;;;20.10;99.90;;;19.34;100.00;95914.31;10334770;28;2305;-81
2021/07/17 18:16:47;;;;;;;;;;;20.10;99.90;;;19.28;100.00;95919.16;10334055;28;2611;-80
2021/07/17 18:21:49;;;;;;;;;;;20.10;99.90;;;19.23;100.00;95921.25;10343014;28;2327;-79
2021/07/17 18:26:52;;;;;;;;;;;20.10;99.90;;;19.09;100.00;95921.47;10333610;28;2414;-80
2021/07/17 18:31:55;;;;;;;;;;;20.00;99.90;;;19.00;100.00;95924.19;10357480;28;2271;-79
2021/07/17 18:36:58;;;;;;;;;;;19.90;99.90;;;18.91;100.00;95939.75;10358818;28;2289;-81
2021/07/17 18:42:01;;;;;;;;;;;19.90;99.90;;;18.96;100.00;95933.31;10337912;28;2387;-81
2021/07/17 18:47:05;;;;;;;;;;;19.80;99.90;;;19.01;100.00;95933.16;10333639;28;2645;-80
2021/07/17 18:52:08;;;;;;;;;;;19.90;99.90;;;18.94;100.00;95943.75;10322288;28;2339;-80
2021/07/17 18:57:11;;;;;;;;;;;19.80;99.90;;;18.84;100.00;95948.41;10324354;28;2895;-79
2021/07/17 19:02:13;;;;;;;;;;;19.80;99.90;;;18.79;100.00;95945.84;10326854;28;2409;-80
2021/07/17 19:07:17;;;;;;;;;;;19.70;99.90;;;18.73;100.00;95946.34;10326714;28;2697;-80
2021/07/17 19:12:22;;;;;;;;;;;19.70;99.90;;;18.68;100.00;95950.03;10321478;28;2316;-80
2021/07/17 19:17:25;;;;;;;;;;;19.70;99.90;;;18.64;100.00;95962.66;10329890;28;2756;-80
2021/07/17 19:22:28;;;;;;;;;;;19.60;99.90;;;18.59;100.00;95957.38;10331206;28;2475;-79
2021/07/17 19:27:30;;;;;;;;;;;19.60;99.90;;;18.51;100.00;95955.41;10332472;28;2505;-80
2021/07/17 19:32:33;;;;;;;;;;;19.50;99.90;;;18.43;100.00;95953.50;10326871;28;2395;-81
2021/07/17 19:37:36;;;;;;;;;;;19.40;99.90;;;18.34;100.00;95967.91;10318569;28;2757;-78
2021/07/17 19:42:39;;;;;;;;;;;19.30;99.90;;;18.33;100.00;95970.97;10334681;28;2273;-81
2021/07/17 19:47:41;;;;;;;;;;;19.30;99.90;;;18.30;100.00;95988.69;10345601;28;2294;-80
2021/07/17 19:52:44;;;;;;;;;;;19.30;99.90;;;18.31;100.00;95982.13;10347815;28;2307;-79
2021/07/17 19:57:47;;;;;;;;;;;19.20;99.90;;;18.36;100.00;95986.63;10334745;28;2379;-79
2021/07/17 20:02:51;;;;;;;;;;;19.20;99.90;;;18.39;100.00;95990.66;10347322;28;2244;-81
2021/07/17 20:07:55;;;;;;;;;;;19.30;99.90;;;18.42;100.00;95990.00;10342201;28;2340;-80
2021/07/17 20:12:58;;;;;;;;;;;19.30;99.90;;;18.34;100.00;95995.13;10333669;28;2293;-79
2021/07/17 20:18:01;;;;;;;;;;;19.30;99.90;;;18.36;100.00;95995.59;10337536;28;2311;-81
2021/07/17 20:23:04;;;;;;;;;;;19.30;99.90;;;18.36;100.00;95994.78;10326937;28;2401;-80
2021/07/17 20:28:06;;;;;;;;;;;19.30;99.90;;;18.41;100.00;95994.66;10349291;28;2383;-80
2021/07/17 20:33:09;;;;;;;;;;;19.30;99.90;;;18.37;100.00;95994.47;10347144;28;2415;-81
2021/07/17 20:38:12;;;;;;;;;;;19.30;99.90;;;18.39;100.00;95991.47;10359836;28;2295;-78
2021/07/17 20:43:15;;;;;;;;;;;19.30;99.90;;;18.35;100.00;95990.47;10337818;28;2373;-82
2021/07/17 20:48:17;;;;;;;;;;;19.30;99.90;;;18.35;100.00;95983.13;10341749;28;2284;-81
2021/07/17 20:53:20;;;;;;;;;;;19.30;99.90;;;18.26;100.00;95982.31;10339296;28;2317;-81
2021/07/17 20:58:23;;;;;;;;;;;19.20;99.90;;;18.23;100.00;95987.56;10341876;28;2820;-80
2021/07/17 21:03:26;;;;;;;;;;;19.20;99.90;;;18.05;100.00;95986.72;10341307;28;2245;-79
2021/07/17 21:08:28;;;;;;;;;;;19.10;99.90;;;17.96;100.00;95984.00;10338251;28;2277;-81
2021/07/17 21:13:31;;;;;;;;;;;19.00;99.90;;;17.87;100.00;95991.31;10360930;28;2344;-81
2021/07/17 21:18:34;;;;;;;;;;;18.90;99.90;;;17.86;100.00;95988.91;10375972;28;1309;-81
2021/07/17 21:23:37;;;;;;;;;;;18.80;99.90;;;17.76;100.00;95993.53;10355619;28;2351;-79
2021/07/17 21:28:39;;;;;;;;;;;18.80;99.90;;;17.74;100.00;95986.78;10351683;28;2239;-81
2021/07/17 21:33:42;;;;;;;;;;;18.70;99.90;;;17.70;100.00;95986.59;10349426;28;2082;-81
2021/07/17 21:38:45;;;;;;;;;;;18.70;99.90;;;17.70;100.00;95992.03;10330743;28;2357;-80
2021/07/17 21:43:48;;;;;;;;;;;18.70;99.90;;;17.65;100.00;95992.16;10357747;28;2391;-80
2021/07/17 21:48:50;;;;;;;;;;;18.70;99.90;;;17.65;100.00;95984.00;10344270;28;2625;-82
2021/07/17 21:53:53;;;;;;;;;;;18.60;99.90;;;17.65;100.00;95978.56;10350920;28;2353;-81
2021/07/17 21:58:56;;;;;;;;;;;18.60;99.90;;;17.70;100.00;95970.28;10343649;28;2234;-80
2021/07/17 22:03:58;;;;;;;;;;;18.70;99.90;;;17.70;100.00;95967.56;10347210;28;2293;-82
2021/07/17 22:09:01;;;;;;;;;;;18.70;99.90;;;17.74;100.00;95960.38;10347705;28;2503;-82
2021/07/17 22:14:05;;;;;;;;;;;18.70;99.90;;;17.77;100.00;95954.34;10358543;28;2343;-82
2021/07/17 22:19:28;;;;;;;;;;;18.70;99.90;;;17.78;100.00;95960.56;10349274;28;2367;-80
2021/07/17 22:24:30;;;;;;;;;;;18.70;99.90;;;17.74;100.00;95960.38;10344984;28;2461;-80
2021/07/17 22:29:33;;;;;;;;;;;18.70;99.90;;;17.71;100.00;95963.75;10344608;28;2424;-81
2021/07/17 22:34:36;;;;;;;;;;;18.70;99.90;;;17.64;100.00;95960.66;10335609;28;2377;-81
2021/07/17 22:39:39;;;;;;;;;;;18.70;99.90;;;17.68;100.00;95950.72;10336672;28;1920;-81
2021/07/17 22:44:42;;;;;;;;;;;18.60;99.90;;;17.62;100.00;95938.41;10346782;28;2384;-81
2021/07/17 22:49:45;;;;;;;;;;;18.60;99.90;;;17.64;100.00;95938.09;10340279;28;2404;-79
2021/07/17 22:54:48;;;;;;;;;;;18.60;99.90;;;17.59;100.00;95936.31;10343821;28;2797;-80
2021/07/17 22:59:51;;;;;;;;;;;18.60;99.90;;;17.59;100.00;95933.59;10343781;28;1966;-81